Airfield :
LOGIN :

Register | Disclaimer

   EN    FR    IT 

 










Legend :    VFR   Marginal VFR   IFR   Intensive IFR   Very Intensive IFR
Visi :
Ceiling :
>= 8 km
>= 3000ft
5 to 8 km
1000 to 3000 ft
1500m to 5 km
500 to 1000 ft
800 to 1500m
200 to 500 ft
< 800m
< 200 ft
Symbols :   Thunderstorms  Fog  Heavy snow  Heavy precipitations  Wind > 20 kt
SIGMETs :     Misc.  Thunderstorms  Icing  Turbulence  Mountain Waves  Volcanic Ashes






- Airport Elevation : 408 ft
- IATA code : SOB


LHSM - Sarmellek Balaton

CURRENT METAR :
  • 230745Z AUTO 34006KT 300V020 CAVOK 19/14 Q1016 NOSIG

EXPIRED METARs :
  • 230715Z AUTO 29004KT 260V320 CAVOK 18/14 Q1016 NOSIG
  • 230645Z AUTO 27004KT 230V300 CAVOK 18/14 Q1016 NOSIG
  • 230615Z AUTO 28004KT 250V320 CAVOK 18/14 Q1015 NOSIG
  • 230545Z AUTO 30005KT 260V350 CAVOK 18/14 Q1015 NOSIG
  • 230515Z AUTO 29005KT 270V330 CAVOK 18/14 Q1015 NOSIG
  • 230445Z AUTO 29005KT 250V340 CAVOK 17/14 Q1015
  • 230415Z AUTO 29004KT 260V320 CAVOK 16/14 Q1015
  • 230345Z AUTO 29005KT CAVOK 15/14 Q1014

TAF TAF LHSM
Valid from the 23 at 09:00 until the 23 at 18:00 UTC


230815Z 2309/2318 34006KT 9999 SCT040
BECMG 2311/2314 VRB03KT
BECMG 2312/2315 CAVOK



MET'MAP, your aeronautical weather chart ! - Copyright ORBIFLY December 2007 - Disclaimer

ORBIFLY MET'MAP TEAM :

Programming & Development : Alexandra Zaïnal
Original concept : Baudouin d'Aumeries
Technical & hardware support : Manuel Goepfert
Assistance : Marc-Olivier Méhu




SOURCES & CREDITS :

   NOAA